Time;durP1;ratioP1;P1;durP2;ratioP2;P2;SDS_P1;SDS_P2;PMS_P1;PMS_P2;Temp;Humidity;BMP_temperature;BMP_pressure;BME280_temperature;BME280_humidity;BME280_pressure;Samples;Min_cycle;Max_cycle;Signal;HPM_P1;HPM_P2
2023/12/23 00:00:27;;;;;;;;;;;;;;;6.49;100.00;95998.03;5065698;28;19987;-74
2023/12/23 00:02:53;;;;;;;;;;;;;;;6.48;100.00;95993.81;5066034;28;20195;-73
2023/12/23 00:05:19;;;;;;;;;;;;;;;6.47;100.00;95987.00;5066079;28;19959;-72
2023/12/23 00:07:45;;;;;;;;;;;;;;;6.47;100.00;95997.44;5065890;28;19958;-73
2023/12/23 00:10:10;;;;;;;;;;;;;;;6.45;100.00;95992.41;5065408;28;19997;-73
2023/12/23 00:12:36;;;;;;;;;;;;;;;6.45;100.00;96018.47;5066156;28;20209;-72
2023/12/23 00:15:03;;;;;;;;;;;;;;;6.44;100.00;96019.44;5065969;28;20234;-74
2023/12/23 00:17:29;;;;;;;;;;;;;;;6.42;100.00;96016.25;5065966;28;19967;-68
2023/12/23 00:19:56;;;;;;;;;;;;;;;6.41;100.00;96016.47;5064617;28;19960;-67
2023/12/23 00:22:22;;;;;;;;;;;;;;;6.40;100.00;96020.84;5065510;28;19961;-67
2023/12/23 00:24:47;;;;;;;;;;;;;;;6.38;100.00;96022.84;5065499;28;20033;-67
2023/12/23 00:27:13;;;;;;;;;;;;;;;6.40;100.00;96025.25;5065803;28;20022;-68
2023/12/23 00:29:40;;;;;;;;;;;;;;;6.40;100.00;96030.47;5065750;28;19969;-68
2023/12/23 00:32:06;;;;;;;;;;;;;;;6.40;100.00;96028.66;5065741;28;19955;-74
2023/12/23 00:34:31;;;;;;;;;;;;;;;6.40;100.00;96041.69;5065492;28;19966;-66
2023/12/23 00:36:57;;;;;;;;;;;;;;;6.40;100.00;96052.09;5065588;28;19964;-66
2023/12/23 00:39:23;;;;;;;;;;;;;;;6.39;100.00;96045.31;5065036;28;19955;-66
2023/12/23 00:41:49;;;;;;;;;;;;;;;6.36;100.00;96057.91;5065389;28;19957;-66
2023/12/23 00:44:15;;;;;;;;;;;;;;;6.34;100.00;96042.50;5064931;28;20258;-67
2023/12/23 00:46:41;;;;;;;;;;;;;;;6.34;100.00;96055.53;5064236;28;20244;-66
2023/12/23 00:49:07;;;;;;;;;;;;;;;6.30;100.00;96052.53;5065307;28;19950;-66
2023/12/23 00:51:33;;;;;;;;;;;;;;;6.27;100.00;96049.50;5064974;28;19960;-73
2023/12/23 00:53:58;;;;;;;;;;;;;;;6.25;100.00;96057.50;5065460;28;19954;-71
2023/12/23 00:56:24;;;;;;;;;;;;;;;6.24;100.00;96058.53;5064887;28;19963;-71
2023/12/23 00:58:50;;;;;;;;;;;;;;;6.23;100.00;96051.69;5064894;28;19959;-72
2023/12/23 01:01:16;;;;;;;;;;;;;;;6.22;100.00;96067.53;5064921;28;19964;-71
2023/12/23 01:03:43;;;;;;;;;;;;;;;6.23;100.00;96064.72;5065133;28;20278;-71
2023/12/23 01:06:09;;;;;;;;;;;;;;;6.21;100.00;96066.72;5064908;28;19959;-71
2023/12/23 01:08:35;;;;;;;;;;;;;;;6.19;100.00;96060.91;5064384;28;19968;-73
2023/12/23 01:11:01;;;;;;;;;;;;;;;6.20;100.00;96082.56;5064846;28;19956;-68
2023/12/23 01:13:27;;;;;;;;;;;;;;;6.19;100.00;96076.53;5064425;28;20123;-75
2023/12/23 01:15:53;;;;;;;;;;;;;;;6.18;100.00;96077.56;5065066;28;20030;-74
2023/12/23 01:18:19;;;;;;;;;;;;;;;6.17;100.00;96083.75;5064891;28;19961;-74
2023/12/23 01:20:44;;;;;;;;;;;;;;;6.16;100.00;96082.16;5064537;28;19964;-74
2023/12/23 01:23:10;;;;;;;;;;;;;;;6.17;100.00;96091.56;5064552;28;19961;-74
2023/12/23 01:25:36;;;;;;;;;;;;;;;6.20;100.00;96095.59;5064403;28;19955;-74
2023/12/23 01:28:04;;;;;;;;;;;;;;;6.20;100.00;96098.19;5063464;28;19969;-73
2023/12/23 01:30:30;;;;;;;;;;;;;;;6.20;100.00;96098.19;5064401;28;20257;-73
2023/12/23 01:32:56;;;;;;;;;;;;;;;6.20;100.00;96098.97;5064566;28;19955;-73
2023/12/23 01:35:22;;;;;;;;;;;;;;;6.20;100.00;96119.03;5064488;28;20025;-73
2023/12/23 01:37:48;;;;;;;;;;;;;;;6.20;100.00;96113.81;5063908;28;19955;-73
2023/12/23 01:40:14;;;;;;;;;;;;;;;6.18;100.00;96118.41;5064456;28;19956;-73
2023/12/23 01:42:40;;;;;;;;;;;;;;;6.16;100.00;96118.59;5064367;28;19941;-73
2023/12/23 01:45:06;;;;;;;;;;;;;;;6.14;100.00;96123.19;5064630;28;20010;-72
2023/12/23 01:47:34;;;;;;;;;;;;;;;6.15;100.00;96116.19;5063978;28;19954;-72
2023/12/23 01:50:01;;;;;;;;;;;;;;;6.16;100.00;96120.41;5064076;28;19957;-68
2023/12/23 01:52:26;;;;;;;;;;;;;;;6.17;100.00;96127.22;5063999;28;19967;-68
2023/12/23 01:54:52;;;;;;;;;;;;;;;6.17;100.00;96120.19;5064005;28;20170;-67
2023/12/23 01:57:18;;;;;;;;;;;;;;;6.19;100.00;96118.19;5064041;28;19977;-68
2023/12/23 01:59:44;;;;;;;;;;;;;;;6.22;100.00;96135.25;5064142;28;20020;-68
2023/12/23 02:02:11;;;;;;;;;;;;;;;6.25;100.00;96135.63;5064254;28;20269;-68
2023/12/23 02:04:37;;;;;;;;;;;;;;;6.26;100.00;96128.63;5064106;28;19957;-74
2023/12/23 02:07:03;;;;;;;;;;;;;;;6.30;100.00;96132.47;5064131;28;19962;-74
2023/12/23 02:09:29;;;;;;;;;;;;;;;6.32;100.00;96146.09;5064124;28;19962;-75
2023/12/23 02:12:02;;;;;;;;;;;;;;;6.34;100.00;96148.47;5063669;28;19945;-73
2023/12/23 02:14:33;;;;;;;;;;;;;;;6.34;100.00;96145.84;5063615;28;19994;-74
2023/12/23 02:16:59;;;;;;;;;;;;;;;6.33;100.00;96152.09;5063691;28;19962;-73
2023/12/23 02:19:24;;;;;;;;;;;;;;;6.30;100.00;96156.69;5064044;28;19997;-74
2023/12/23 02:21:50;;;;;;;;;;;;;;;6.28;100.00;96143.06;5063795;28;20238;-67
2023/12/23 02:24:16;;;;;;;;;;;;;;;6.28;100.00;96150.09;5063858;28;19994;-72
2023/12/23 02:26:43;;;;;;;;;;;;;;;6.26;100.00;96149.47;5063892;28;19954;-74
2023/12/23 02:29:10;;;;;;;;;;;;;;;6.23;100.00;96145.44;5063816;28;19964;-74
2023/12/23 02:31:36;;;;;;;;;;;;;;;6.23;100.00;96142.03;5063934;28;19955;-75
2023/12/23 02:34:02;;;;;;;;;;;;;;;6.20;100.00;96151.06;5063862;28;19961;-74
2023/12/23 02:36:28;;;;;;;;;;;;;;;6.16;100.00;96149.06;5063909;28;19958;-74
2023/12/23 02:38:54;;;;;;;;;;;;;;;6.13;100.00;96145.00;5063861;28;20222;-75
2023/12/23 02:41:20;;;;;;;;;;;;;;;6.10;100.00;96158.44;5063966;28;19965;-66
2023/12/23 02:43:46;;;;;;;;;;;;;;;6.08;100.00;96163.84;5063684;28;19953;-68
2023/12/23 02:46:11;;;;;;;;;;;;;;;6.09;100.00;96168.06;5062779;28;20154;-68
2023/12/23 02:48:37;;;;;;;;;;;;;;;6.09;100.00;96162.84;5063776;28;19960;-69
2023/12/23 02:51:03;;;;;;;;;;;;;;;6.10;100.00;96166.25;5063484;28;19958;-68
2023/12/23 02:53:29;;;;;;;;;;;;;;;6.10;100.00;96154.03;5063505;28;20243;-68
2023/12/23 02:55:55;;;;;;;;;;;;;;;6.09;100.00;96149.84;5063603;28;19957;-68
2023/12/23 02:58:20;;;;;;;;;;;;;;;6.09;100.00;96165.44;5063813;28;20146;-67
2023/12/23 03:00:46;;;;;;;;;;;;;;;6.11;100.00;96167.88;5064102;28;20023;-71
2023/12/23 03:03:12;;;;;;;;;;;;;;;6.09;100.00;96170.66;5063676;28;19954;-66
2023/12/23 03:05:38;;;;;;;;;;;;;;;6.08;100.00;96176.84;5062619;28;20183;-66
2023/12/23 03:08:04;;;;;;;;;;;;;;;6.07;100.00;96167.44;5063599;28;19962;-66
2023/12/23 03:10:30;;;;;;;;;;;;;;;6.07;100.00;96161.44;5066672;28;19951;-67
2023/12/23 03:12:55;;;;;;;;;;;;;;;6.03;100.00;96162.84;5066725;28;19959;-66
2023/12/23 03:15:21;;;;;;;;;;;;;;;6.02;100.00;96166.41;5066962;28;19963;-66
2023/12/23 03:17:47;;;;;;;;;;;;;;;6.00;100.00;96156.19;5067271;28;19965;-73
2023/12/23 03:20:13;;;;;;;;;;;;;;;5.99;100.00;96161.63;5067274;28;19959;-76
2023/12/23 03:22:39;;;;;;;;;;;;;;;5.98;100.00;96168.59;5066792;28;19996;-78
2023/12/23 03:25:05;;;;;;;;;;;;;;;5.97;100.00;96159.22;5067019;28;19951;-78
2023/12/23 03:27:30;;;;;;;;;;;;;;;5.98;100.00;96166.00;5066860;28;19946;-79
2023/12/23 03:29:56;;;;;;;;;;;;;;;5.98;100.00;96173.00;5066930;28;20011;-77
2023/12/23 03:32:22;;;;;;;;;;;;;;;5.96;100.00;96162.78;5066873;28;20012;-79
2023/12/23 03:34:48;;;;;;;;;;;;;;;5.96;100.00;96162.00;5066784;28;19997;-78
2023/12/23 03:37:14;;;;;;;;;;;;;;;5.96;100.00;96172.41;5066782;28;20243;-68
2023/12/23 03:39:40;;;;;;;;;;;;;;;5.95;100.00;96166.41;5066760;28;19961;-73
2023/12/23 03:42:05;;;;;;;;;;;;;;;5.96;100.00;96164.59;5066276;28;19961;-73
2023/12/23 03:44:31;;;;;;;;;;;;;;;5.96;100.00;96178.41;5066753;28;20242;-74
2023/12/23 03:46:57;;;;;;;;;;;;;;;5.96;100.00;96167.19;5066550;28;19964;-74
2023/12/23 03:49:23;;;;;;;;;;;;;;;5.97;100.00;96174.03;5066182;28;19957;-73
2023/12/23 03:51:49;;;;;;;;;;;;;;;5.98;100.00;96178.22;5066617;28;20235;-73
2023/12/23 03:54:15;;;;;;;;;;;;;;;5.97;100.00;96174.81;5066587;28;20034;-73
2023/12/23 03:56:40;;;;;;;;;;;;;;;5.98;100.00;96179.00;5066176;28;19963;-71
2023/12/23 03:59:06;;;;;;;;;;;;;;;5.98;100.00;96170.41;5066674;28;19961;-73
2023/12/23 04:01:32;;;;;;;;;;;;;;;5.97;100.00;96154.00;5065776;28;19963;-72
2023/12/23 04:03:58;;;;;;;;;;;;;;;5.99;100.00;96146.00;5066225;28;20241;-71
2023/12/23 04:06:26;;;;;;;;;;;;;;;6.01;100.00;96149.22;5066180;28;19960;-72
2023/12/23 04:08:51;;;;;;;;;;;;;;;6.01;100.00;96163.03;5066204;28;19958;-74
2023/12/23 04:11:17;;;;;;;;;;;;;;;6.02;100.00;96164.63;5066642;28;20102;-73
2023/12/23 04:13:43;;;;;;;;;;;;;;;6.03;100.00;96165.44;5066107;28;20021;-73
2023/12/23 04:16:09;;;;;;;;;;;;;;;6.05;100.00;96166.03;5066104;28;19956;-74
2023/12/23 04:18:35;;;;;;;;;;;;;;;6.06;100.00;96149.41;5066153;28;19969;-75
2023/12/23 04:21:01;;;;;;;;;;;;;;;6.07;100.00;96133.59;5065474;28;19954;-74
2023/12/23 04:23:26;;;;;;;;;;;;;;;6.07;100.00;96128.41;5065888;28;19958;-74
2023/12/23 04:25:52;;;;;;;;;;;;;;;6.08;100.00;96145.59;5065321;28;20021;-73
2023/12/23 04:28:24;;;;;;;;;;;;;;;6.07;100.00;96136.22;5065707;28;20006;-73
2023/12/23 04:30:54;;;;;;;;;;;;;;;6.07;100.00;96138.03;5065454;28;19960;-73
2023/12/23 04:33:21;;;;;;;;;;;;;;;6.05;100.00;96159.03;5065873;28;20240;-73
2023/12/23 04:35:47;;;;;;;;;;;;;;;6.02;100.00;96163.81;5065117;28;19954;-74
2023/12/23 04:38:16;;;;;;;;;;;;;;;5.99;100.00;96159.81;5065281;28;19964;-74
2023/12/23 04:40:42;;;;;;;;;;;;;;;5.97;100.00;96137.59;5065582;28;19956;-75
2023/12/23 04:43:07;;;;;;;;;;;;;;;5.94;100.00;96143.13;5065155;28;19954;-75
2023/12/23 04:45:33;;;;;;;;;;;;;;;5.93;100.00;96139.75;5065118;28;20000;-75
2023/12/23 04:47:59;;;;;;;;;;;;;;;5.94;100.00;96136.13;5065129;28;20004;-74
2023/12/23 04:50:25;;;;;;;;;;;;;;;5.97;100.00;96137.59;5065138;28;20029;-76
2023/12/23 04:52:51;;;;;;;;;;;;;;;5.97;100.00;96127.19;5065116;28;19960;-73
2023/12/23 04:55:17;;;;;;;;;;;;;;;5.98;100.00;96119.16;5065107;28;19964;-73
2023/12/23 04:57:43;;;;;;;;;;;;;;;5.98;100.00;96116.53;5065060;28;19965;-73
2023/12/23 05:00:09;;;;;;;;;;;;;;;5.97;100.00;96127.97;5064681;28;19959;-74
2023/12/23 05:02:35;;;;;;;;;;;;;;;5.99;100.00;96122.56;5065239;28;19954;-75
2023/12/23 05:05:01;;;;;;;;;;;;;;;5.97;100.00;96116.78;5065194;28;20216;-74
2023/12/23 05:07:27;;;;;;;;;;;;;;;5.95;100.00;96135.16;5064482;28;19940;-69
2023/12/23 05:09:53;;;;;;;;;;;;;;;5.95;100.00;96137.78;5064618;28;19966;-67
2023/12/23 05:12:22;;;;;;;;;;;;;;;5.95;100.00;96142.97;5065029;28;19973;-74
2023/12/23 05:14:48;;;;;;;;;;;;;;;5.95;100.00;96137.78;5064583;28;19959;-73
2023/12/23 05:17:14;;;;;;;;;;;;;;;5.93;100.00;96142.34;5064524;28;19965;-74
2023/12/23 05:19:41;;;;;;;;;;;;;;;5.92;100.00;96135.53;5064850;28;19953;-73
2023/12/23 05:22:07;;;;;;;;;;;;;;;5.90;100.00;96122.72;5064762;28;19959;-74
2023/12/23 05:24:33;;;;;;;;;;;;;;;5.87;100.00;96104.88;5064561;28;19961;-75
2023/12/23 05:26:59;;;;;;;;;;;;;;;5.87;100.00;96091.88;5064688;28;19973;-77
2023/12/23 05:29:25;;;;;;;;;;;;;;;5.86;100.00;96071.28;5064711;28;20182;-66
2023/12/23 05:31:51;;;;;;;;;;;;;;;5.84;100.00;96100.09;5064039;28;20301;-67
2023/12/23 05:34:17;;;;;;;;;;;;;;;5.85;100.00;96098.28;5064899;28;20249;-67
2023/12/23 05:36:42;;;;;;;;;;;;;;;5.84;100.00;96112.31;5064582;28;20304;-67
2023/12/23 05:39:10;;;;;;;;;;;;;;;5.83;100.00;96113.28;5064733;28;20039;-66
2023/12/23 05:41:35;;;;;;;;;;;;;;;5.82;100.00;96127.31;5064120;28;19959;-66
2023/12/23 05:44:01;;;;;;;;;;;;;;;5.82;100.00;96128.09;5064515;28;19957;-66
2023/12/23 05:46:27;;;;;;;;;;;;;;;5.82;100.00;96130.72;5064211;28;20005;-67
2023/12/23 05:48:53;;;;;;;;;;;;;;;5.83;100.00;96134.91;5064549;28;20021;-73
2023/12/23 05:51:19;;;;;;;;;;;;;;;5.84;100.00;96131.31;5064286;28;20005;-73
2023/12/23 05:53:44;;;;;;;;;;;;;;;5.85;100.00;96124.31;5064174;28;19982;-73
2023/12/23 05:56:10;;;;;;;;;;;;;;;5.87;100.00;96130.13;5064233;28;20297;-73
2023/12/23 05:58:36;;;;;;;;;;;;;;;5.87;100.00;96119.69;5064149;28;19967;-73
2023/12/23 06:01:04;;;;;;;;;;;;;;;5.87;100.00;96114.50;5064282;28;19957;-74
2023/12/23 06:03:30;;;;;;;;;;;;;;;5.87;100.00;96101.50;5064294;28;20229;-73
2023/12/23 06:05:56;;;;;;;;;;;;;;;5.87;100.00;96098.88;5064219;28;19953;-66
2023/12/23 06:08:22;;;;;;;;;;;;;;;5.86;100.00;96113.69;5063665;28;20022;-66
2023/12/23 06:10:47;;;;;;;;;;;;;;;5.85;100.00;96113.88;5064419;28;19964;-66
2023/12/23 06:13:13;;;;;;;;;;;;;;;5.85;100.00;96116.50;5063742;28;19996;-66
2023/12/23 06:15:39;;;;;;;;;;;;;;;5.85;100.00;96111.28;5064304;28;19952;-66
2023/12/23 06:18:05;;;;;;;;;;;;;;;5.84;100.00;96109.69;5063734;28;19973;-66
2023/12/23 06:20:31;;;;;;;;;;;;;;;5.83;100.00;96105.47;5063555;28;19970;-66
2023/12/23 06:22:57;;;;;;;;;;;;;;;5.81;100.00;96105.66;5064093;28;19958;-74
2023/12/23 06:25:23;;;;;;;;;;;;;;;5.81;100.00;96099.66;5063861;28;20021;-73
2023/12/23 06:27:49;;;;;;;;;;;;;;;5.79;100.00;96093.84;5063900;28;19958;-72
2023/12/23 06:30:15;;;;;;;;;;;;;;;5.78;100.00;96093.06;5063501;28;19959;-72
2023/12/23 06:32:41;;;;;;;;;;;;;;;5.78;100.00;96103.47;5063946;28;19965;-71
2023/12/23 06:35:07;;;;;;;;;;;;;;;5.78;100.00;96092.28;5063973;28;19970;-72
2023/12/23 06:37:33;;;;;;;;;;;;;;;5.75;100.00;96103.84;5063361;28;20155;-72
2023/12/23 06:39:59;;;;;;;;;;;;;;;5.77;100.00;96106.25;5064182;28;19963;-68
2023/12/23 06:42:25;;;;;;;;;;;;;;;5.75;100.00;96103.06;5063991;28;19960;-72
2023/12/23 06:44:51;;;;;;;;;;;;;;;5.77;100.00;96098.44;5067812;28;20272;-74
2023/12/23 06:47:17;;;;;;;;;;;;;;;5.77;100.00;96099.25;5067960;28;19964;-74
2023/12/23 06:49:43;;;;;;;;;;;;;;;5.78;100.00;96110.47;5067486;28;19999;-73
2023/12/23 06:52:08;;;;;;;;;;;;;;;5.77;100.00;96116.66;5067678;28;20007;-73
2023/12/23 06:54:34;;;;;;;;;;;;;;;5.77;100.00;96117.47;5067450;28;19958;-74
2023/12/23 06:57:00;;;;;;;;;;;;;;;5.78;100.00;96126.09;5067682;28;20021;-74
2023/12/23 06:59:26;;;;;;;;;;;;;;;5.77;100.00;96132.28;5067047;28;19971;-78
2023/12/23 07:01:52;;;;;;;;;;;;;;;5.76;100.00;96134.09;5067503;28;19967;-68
2023/12/23 07:04:18;;;;;;;;;;;;;;;5.74;100.00;96130.09;5067473;28;19964;-69
2023/12/23 07:06:45;;;;;;;;;;;;;;;5.75;100.00;96149.88;5066365;28;20357;-68
2023/12/23 07:09:11;;;;;;;;;;;;;;;5.75;100.00;96142.06;5066808;28;19975;-68
2023/12/23 07:11:37;;;;;;;;;;;;;;;5.73;100.00;96118.84;5066869;28;20001;-69
2023/12/23 07:14:03;;;;;;;;;;;;;;;5.74;100.00;96137.88;5066893;28;19981;-68
2023/12/23 07:16:29;;;;;;;;;;;;;;;5.70;100.00;96133.06;5066993;28;19959;-75
2023/12/23 07:18:54;;;;;;;;;;;;;;;5.70;100.00;96121.84;5067132;28;19962;-66
2023/12/23 07:21:20;;;;;;;;;;;;;;;5.69;100.00;96139.28;5066906;28;19962;-74
2023/12/23 07:23:46;;;;;;;;;;;;;;;5.68;100.00;96145.44;5066845;28;20249;-74
2023/12/23 07:26:13;;;;;;;;;;;;;;;5.68;100.00;96140.25;5067047;28;19965;-73
2023/12/23 07:28:39;;;;;;;;;;;;;;;5.68;100.00;96134.25;5066568;28;19959;-74
2023/12/23 07:31:05;;;;;;;;;;;;;;;5.67;100.00;96128.25;5066986;28;19960;-73
2023/12/23 07:33:31;;;;;;;;;;;;;;;5.67;100.00;96122.25;5066876;28;19981;-74
2023/12/23 07:35:57;;;;;;;;;;;;;;;5.66;100.00;96134.44;5066803;28;20137;-73
2023/12/23 07:38:23;;;;;;;;;;;;;;;5.67;100.00;96135.25;5066656;28;19959;-71
2023/12/23 07:40:49;;;;;;;;;;;;;;;5.67;100.00;96136.06;5066356;28;19959;-71
2023/12/23 07:43:15;;;;;;;;;;;;;;;5.68;100.00;96144.66;5066406;28;20259;-71
2023/12/23 07:45:42;;;;;;;;;;;;;;;5.69;100.00;96154.06;5066319;28;19958;-71
2023/12/23 07:48:08;;;;;;;;;;;;;;;5.69;100.00;96157.47;5066606;28;19964;-71
2023/12/23 07:50:34;;;;;;;;;;;;;;;5.70;100.00;96142.66;5066525;28;19959;-71
2023/12/23 07:52:59;;;;;;;;;;;;;;;5.70;100.00;96143.47;5066284;28;19965;-69
2023/12/23 07:55:26;;;;;;;;;;;;;;;5.70;100.00;96145.28;5065716;28;19954;-73
2023/12/23 07:57:52;;;;;;;;;;;;;;;5.67;100.00;96138.66;5066232;28;19994;-68
2023/12/23 08:00:18;;;;;;;;;;;;;;;5.67;100.00;96132.66;5066416;28;19975;-68
2023/12/23 08:02:44;;;;;;;;;;;;;;;5.69;100.00;96139.28;5066324;28;20230;-68
2023/12/23 08:05:10;;;;;;;;;;;;;;;5.70;100.00;96140.84;5066281;28;19944;-69
2023/12/23 08:07:36;;;;;;;;;;;;;;;5.70;100.00;96148.66;5066358;28;19943;-69
2023/12/23 08:10:04;;;;;;;;;;;;;;;5.71;100.00;96159.88;5066206;28;19980;-68
2023/12/23 08:12:30;;;;;;;;;;;;;;;5.70;100.00;96156.47;5065844;28;19959;-77
2023/12/23 08:14:56;;;;;;;;;;;;;;;5.71;100.00;96152.06;5065782;28;19994;-76
2023/12/23 08:17:21;;;;;;;;;;;;;;;5.72;100.00;96153.69;5065353;28;20040;-77
2023/12/23 08:19:47;;;;;;;;;;;;;;;5.72;100.00;96147.69;5064713;28;19971;-77
2023/12/23 08:22:13;;;;;;;;;;;;;;;5.71;100.00;96141.66;5065808;28;19989;-77
2023/12/23 08:24:39;;;;;;;;;;;;;;;5.72;100.00;96148.47;5065764;28;19965;-77
2023/12/23 08:27:05;;;;;;;;;;;;;;;5.73;100.00;96149.28;5065778;28;20015;-77
2023/12/23 08:29:31;;;;;;;;;;;;;;;5.74;100.00;96149.09;5066563;28;20024;-77
2023/12/23 08:31:56;;;;;;;;;;;;;;;5.76;100.00;96144.50;5065787;28;20125;-73
2023/12/23 08:34:22;;;;;;;;;;;;;;;5.79;100.00;96151.91;5065681;28;20002;-74
2023/12/23 08:36:49;;;;;;;;;;;;;;;5.81;100.00;96157.72;5065897;28;20234;-74
2023/12/23 08:39:15;;;;;;;;;;;;;;;5.83;100.00;96157.53;5065170;28;19964;-75
2023/12/23 08:41:40;;;;;;;;;;;;;;;5.84;100.00;96154.72;5065827;28;19963;-76
2023/12/23 08:44:06;;;;;;;;;;;;;;;5.85;100.00;96147.72;5065025;28;20024;-75
2023/12/23 08:46:32;;;;;;;;;;;;;;;5.87;100.00;96156.13;5065179;28;19981;-75
2023/12/23 08:48:59;;;;;;;;;;;;;;;5.88;100.00;96163.75;5065512;28;19975;-72
2023/12/23 08:51:29;;;;;;;;;;;;;;;5.90;100.00;96153.16;5065122;28;20149;-79
2023/12/23 08:53:55;;;;;;;;;;;;;;;5.92;100.00;96158.94;5065139;28;19969;-73
2023/12/23 08:56:21;;;;;;;;;;;;;;;5.94;100.00;96159.56;5065243;28;19968;-74
2023/12/23 08:58:47;;;;;;;;;;;;;;;5.96;100.00;96160.19;5065248;28;19969;-74
2023/12/23 09:01:12;;;;;;;;;;;;;;;6.00;100.00;96153.59;5065297;28;19959;-72
2023/12/23 09:03:38;;;;;;;;;;;;;;;6.04;100.00;96170.44;5065148;28;19944;-75
2023/12/23 09:06:06;;;;;;;;;;;;;;;6.06;100.00;96159.81;5064275;28;19987;-74
2023/12/23 09:08:33;;;;;;;;;;;;;;;6.16;100.00;96164.66;5064749;28;19963;-73
2023/12/23 09:11:02;;;;;;;;;;;;;;;6.28;100.00;96153.47;5064664;28;20257;-76
2023/12/23 09:13:27;;;;;;;;;;;;;;;6.63;100.00;96150.69;5065188;28;19968;-76
2023/12/23 09:15:53;;;;;;;;;;;;;;;6.80;100.00;96145.09;5064643;28;19957;-77
2023/12/23 09:18:19;;;;;;;;;;;;;;;6.74;100.00;96156.31;5064981;28;19969;-77
2023/12/23 09:20:45;;;;;;;;;;;;;;;6.55;100.00;96150.91;5064629;28;19959;-77
2023/12/23 09:23:11;;;;;;;;;;;;;;;6.49;100.00;96156.91;5064576;28;20299;-77
2023/12/23 09:25:37;;;;;;;;;;;;;;;6.43;100.00;96158.50;5064243;28;20007;-76
2023/12/23 09:28:03;;;;;;;;;;;;;;;6.39;100.00;96157.28;5064862;28;20051;-68
2023/12/23 09:30:28;;;;;;;;;;;;;;;6.37;100.00;96167.09;5064668;28;19965;-71
2023/12/23 09:32:54;;;;;;;;;;;;;;;6.35;100.00;96161.28;5064452;28;20116;-72
2023/12/23 09:35:20;;;;;;;;;;;;;;;6.35;100.00;96157.91;5064065;28;19957;-73
2023/12/23 09:37:46;;;;;;;;;;;;;;;6.37;100.00;96161.91;5064450;28;19960;-72
2023/12/23 09:40:13;;;;;;;;;;;;;;;6.39;100.00;96162.50;5064020;28;19976;-72
2023/12/23 09:42:39;;;;;;;;;;;;;;;6.39;100.00;96165.13;5064749;28;19965;-73
2023/12/23 09:45:05;;;;;;;;;;;;;;;6.42;100.00;96161.31;5063534;28;20028;-68
2023/12/23 09:47:31;;;;;;;;;;;;;;;6.44;100.00;96172.31;5064187;28;20236;-73
2023/12/23 09:49:57;;;;;;;;;;;;;;;6.43;100.00;96170.72;5064185;28;19961;-72
2023/12/23 09:52:23;;;;;;;;;;;;;;;6.43;100.00;96170.72;5064223;28;20013;-73
2023/12/23 09:54:51;;;;;;;;;;;;;;;6.45;100.00;96173.94;5063797;28;19956;-73
2023/12/23 09:57:17;;;;;;;;;;;;;;;6.44;100.00;96167.91;5064285;28;19959;-73
2023/12/23 09:59:43;;;;;;;;;;;;;;;6.42;100.00;96169.91;5064209;28;19962;-73
2023/12/23 10:02:09;;;;;;;;;;;;;;;6.39;100.00;96149.47;5064234;28;19963;-72
2023/12/23 10:04:34;;;;;;;;;;;;;;;6.43;100.00;96162.91;5063766;28;19972;-69
2023/12/23 10:07:01;;;;;;;;;;;;;;;6.42;100.00;96162.09;5064462;28;20240;-76
2023/12/23 10:09:29;;;;;;;;;;;;;;;6.40;100.00;96155.50;5064350;28;19960;-75
2023/12/23 10:11:55;;;;;;;;;;;;;;;6.39;100.00;96149.47;5064192;28;19960;-75
2023/12/23 10:14:22;;;;;;;;;;;;;;;6.37;100.00;96164.50;5062968;28;19963;-76
2023/12/23 10:16:48;;;;;;;;;;;;;;;6.39;100.00;96170.31;5064146;28;20134;-75
2023/12/23 10:19:14;;;;;;;;;;;;;;;6.38;100.00;96157.50;5067481;28;19961;-75
2023/12/23 10:21:43;;;;;;;;;;;;;;;6.38;100.00;96158.28;5068149;28;19980;-68
2023/12/23 10:24:09;;;;;;;;;;;;;;;6.38;100.00;96167.91;5066561;28;19958;-73
2023/12/23 10:26:36;;;;;;;;;;;;;;;6.38;100.00;96147.06;5068146;28;20137;-72
2023/12/23 10:29:03;;;;;;;;;;;;;;;6.38;100.00;96171.31;5068089;28;19954;-73
2023/12/23 10:31:30;;;;;;;;;;;;;;;6.40;100.00;96160.69;5068029;28;19958;-73
2023/12/23 10:33:59;;;;;;;;;;;;;;;6.42;100.00;96179.53;5067514;28;20233;-73
2023/12/23 10:36:26;;;;;;;;;;;;;;;6.41;100.00;96177.94;5067593;28;20290;-73
2023/12/23 10:38:58;;;;;;;;;;;;;;;6.43;100.00;96184.56;5067526;28;19978;-73
2023/12/23 10:41:38;;;;;;;;;;;;;;;6.43;100.00;96186.38;5067779;28;19965;-74
2023/12/23 10:44:05;;;;;;;;;;;;;;;6.42;100.00;96174.31;5067786;28;19958;-74
2023/12/23 10:46:32;;;;;;;;;;;;;;;6.39;100.00;96179.94;5067757;28;20223;-73
2023/12/23 10:48:59;;;;;;;;;;;;;;;6.35;100.00;96169.09;5067729;28;19961;-73
2023/12/23 10:51:25;;;;;;;;;;;;;;;6.36;100.00;96169.91;5067609;28;19958;-74
2023/12/23 10:53:51;;;;;;;;;;;;;;;6.33;100.00;96178.13;5067621;28;19962;-73
2023/12/23 10:56:17;;;;;;;;;;;;;;;6.32;100.00;96184.31;5067531;28;20147;-73
2023/12/23 10:58:43;;;;;;;;;;;;;;;6.28;100.00;96191.75;5067708;28;19960;-69
2023/12/23 11:01:11;;;;;;;;;;;;;;;6.27;100.00;96182.31;5067026;28;20045;-73
2023/12/23 11:03:37;;;;;;;;;;;;;;;6.30;100.00;96184.53;5067566;28;20131;-73
2023/12/23 11:06:05;;;;;;;;;;;;;;;6.32;100.00;96174.72;5066720;28;19989;-74
2023/12/23 11:08:32;;;;;;;;;;;;;;;6.33;100.00;96184.13;5066794;28;19958;-73
2023/12/23 11:10:58;;;;;;;;;;;;;;;6.32;100.00;96171.31;5067011;28;20243;-75
2023/12/23 11:13:25;;;;;;;;;;;;;;;6.42;100.00;96169.13;5066958;28;20264;-72
2023/12/23 11:15:53;;;;;;;;;;;;;;;6.48;100.00;96163.13;5067029;28;19972;-71
2023/12/23 11:18:21;;;;;;;;;;;;;;;6.48;100.00;96168.31;5066869;28;19956;-71
2023/12/23 11:20:49;;;;;;;;;;;;;;;6.46;100.00;96180.75;5066985;28;19959;-68
2023/12/23 11:23:33;;;;;;;;;;;;;;;6.52;100.00;96166.94;5066981;28;20248;-70
2023/12/23 11:26:03;;;;;;;;;;;;;;;6.58;100.00;96167.94;5067217;28;19958;-69
2023/12/23 11:28:30;;;;;;;;;;;;;;;6.53;100.00;96170.31;5066446;28;19962;-68
2023/12/23 11:30:57;;;;;;;;;;;;;;;6.48;100.00;96158.69;5065517;28;19959;-69
2023/12/23 11:33:27;;;;;;;;;;;;;;;6.45;100.00;96151.31;5066536;28;19967;-68
2023/12/23 11:35:55;;;;;;;;;;;;;;;6.45;100.00;96147.91;5049025;28;20145;-73
2023/12/23 11:38:21;;;;;;;;;;;;;;;6.45;100.00;96153.91;5066768;28;19955;-75
2023/12/23 11:40:48;;;;;;;;;;;;;;;6.45;100.00;96156.50;5066410;28;20270;-75
2023/12/23 11:43:15;;;;;;;;;;;;;;;6.47;100.00;96145.91;5066746;28;19956;-75
2023/12/23 11:45:42;;;;;;;;;;;;;;;6.44;100.00;96143.69;5066591;28;19956;-76
2023/12/23 11:48:08;;;;;;;;;;;;;;;6.44;100.00;96154.88;5066146;28;19941;-75
2023/12/23 11:50:34;;;;;;;;;;;;;;;6.46;100.00;96159.91;5066796;28;19959;-78
2023/12/23 11:53:00;;;;;;;;;;;;;;;6.54;100.00;96149.28;5066617;28;19967;-71
2023/12/23 11:55:26;;;;;;;;;;;;;;;6.55;100.00;96155.31;5066525;28;19985;-70
2023/12/23 11:57:52;;;;;;;;;;;;;;;6.58;100.00;96145.28;5066059;28;20120;-75
2023/12/23 12:00:18;;;;;;;;;;;;;;;6.60;100.00;96138.06;5066116;28;20155;-74
2023/12/23 12:02:45;;;;;;;;;;;;;;;6.60;100.00;96145.91;5066128;28;20131;-75
2023/12/23 12:05:11;;;;;;;;;;;;;;;6.62;100.00;96145.69;5066353;28;20240;-75
2023/12/23 12:07:36;;;;;;;;;;;;;;;6.62;100.00;96172.56;5066223;28;19957;-75
2023/12/23 12:10:02;;;;;;;;;;;;;;;6.61;100.00;96170.13;5065640;28;19971;-75
2023/12/23 12:12:28;;;;;;;;;;;;;;;6.62;100.00;96187.41;5066261;28;19956;-69
2023/12/23 12:14:54;;;;;;;;;;;;;;;6.66;100.00;96192.00;5066081;28;19990;-74
2023/12/23 12:17:20;;;;;;;;;;;;;;;6.87;100.00;96171.97;5065904;28;19953;-72
2023/12/23 12:19:46;;;;;;;;;;;;;;;6.88;100.00;96183.97;5065937;28;19991;-72
2023/12/23 12:22:12;;;;;;;;;;;;;;;6.84;100.00;96177.56;5065975;28;20269;-72
2023/12/23 12:24:38;;;;;;;;;;;;;;;6.80;100.00;96174.56;5066194;28;19958;-72
2023/12/23 12:27:04;;;;;;;;;;;;;;;6.79;100.00;96172.97;5065929;28;19960;-72
2023/12/23 12:29:30;;;;;;;;;;;;;;;6.76;100.00;96162.13;5065908;28;20282;-68
2023/12/23 12:31:59;;;;;;;;;;;;;;;6.74;100.00;96157.13;5065552;28;19995;-67
2023/12/23 12:34:26;;;;;;;;;;;;;;;6.73;100.00;96141.69;5065830;28;19954;-75
2023/12/23 12:36:52;;;;;;;;;;;;;;;6.69;100.00;96143.88;5065585;28;19959;-75
2023/12/23 12:39:19;;;;;;;;;;;;;;;6.67;100.00;96144.09;5065075;28;19969;-76
2023/12/23 12:41:45;;;;;;;;;;;;;;;6.65;100.00;96143.47;5065506;28;19984;-76